< < Back
Terminal Aerodrome Forecast


Current Version              Previous Versions:   1  2  3  4  5  6  7  8  9  

Terminal Aerodrome Forecast

171
FTUS42 KGSP 251124
TAFGSP
TAF
KGSP 251124Z 2512/2612 22004KT P6SM FEW200
     FM251600 20006KT P6SM SCT050
     FM252100 21008KT P6SM BKN060
     FM260200 20002KT P6SM SCT070
     FM260400 00000KT P6SM SCT050=



Latest METAR

839
SAUS70 KWBC 260000 RRH
MTRGSP
METAR KGSP 252353Z 03005KT 10SM SCT090 29/22 A2999 RMK AO2 LTG DSNT W
SLP140 T02940222 10361 20294 53006


USA.gov is the U.S. government's official web portal to all federal, state and local government web resources and services.